Time,TemperatureF,DewpointF,PressureIn,WindDirection,WindDirectionDegrees,WindSpeedMPH,WindSpeedGustMPH,Humidity,HourlyPrecipIn,Conditions,Clouds,dailyrainin,SoftwareType,DateUTC
2013-08-05 00:01:00,43.9,43.0,29.97,South,180,0.0,0.0,95,0.00,,,0.00,weatherlink.com 1.10,2013-08-05 06:01:00,
2013-08-05 00:16:00,43.9,43.0,29.97,South,180,0.0,1.0,95,0.00,,,0.00,weatherlink.com 1.10,2013-08-05 06:16:00,
2013-08-05 00:31:00,43.3,42.0,29.97,South,180,0.0,0.0,96,0.00,,,0.00,weatherlink.com 1.10,2013-08-05 06:31:00,
2013-08-05 00:46:00,42.5,42.0,29.97,SSW,198,0.0,0.0,96,0.00,,,0.00,weatherlink.com 1.10,2013-08-05 06:46:00,
2013-08-05 01:01:00,42.0,41.0,29.96,SSW,198,1.0,1.0,96,0.00,,,0.00,weatherlink.com 1.10,2013-08-05 07:01:00,
2013-08-05 01:16:00,43.0,42.0,29.95,ESE,123,1.0,2.0,97,0.00,,,0.00,weatherlink.com 1.10,2013-08-05 07:16:00,
2013-08-05 01:31:00,43.5,43.0,29.96,SE,129,0.0,2.0,96,0.00,,,0.00,weatherlink.com 1.10,2013-08-05 07:31:00,
2013-08-05 01:46:00,43.2,42.0,29.96,SE,129,0.0,1.0,97,0.00,,,0.00,weatherlink.com 1.10,2013-08-05 07:46:00,
2013-08-05 02:01:00,43.0,42.0,29.95,SE,129,0.0,1.0,96,0.00,,,0.00,weatherlink.com 1.10,2013-08-05 08:01:00,
2013-08-05 02:16:00,42.9,42.0,29.95,SE,129,0.0,1.0,96,0.00,,,0.00,weatherlink.com 1.10,2013-08-05 08:16:00,
2013-08-05 02:31:00,42.7,42.0,29.94,SE,128,1.0,2.0,96,0.01,,,0.01,weatherlink.com 1.10,2013-08-05 08:31:00,
2013-08-05 03:01:00,42.2,41.0,29.94,West,265,0.0,1.0,95,0.01,,,0.01,weatherlink.com 1.10,2013-08-05 09:01:00,
2013-08-05 04:31:00,39.5,39.0,29.95,SE,136,0.0,1.0,97,0.00,,,0.01,weatherlink.com 1.10,2013-08-05 10:31:00,
2013-08-05 04:46:00,39.1,38.0,29.95,SE,136,0.0,1.0,97,0.00,,,0.01,weatherlink.com 1.10,2013-08-05 10:46:00,
2013-08-05 05:01:00,39.0,38.0,29.95,SE,127,0.0,1.0,97,0.00,,,0.01,weatherlink.com 1.10,2013-08-05 11:01:00,
2013-08-05 05:31:00,38.8,38.0,29.96,SE,127,0.0,1.0,98,0.00,,,0.01,weatherlink.com 1.10,2013-08-05 11:31:00,
2013-08-05 05:46:00,38.8,38.0,29.96,ESE,117,0.0,1.0,97,0.00,,,0.01,weatherlink.com 1.10,2013-08-05 11:46:00,
2013-08-05 06:01:00,38.8,38.0,29.97,ESE,118,1.0,1.0,97,0.00,,,0.01,weatherlink.com 1.10,2013-08-05 12:01:00,
2013-08-05 06:17:00,38.9,38.0,29.98,ESE,118,0.0,1.0,98,0.00,,,0.01,weatherlink.com 1.10,2013-08-05 12:17:00,
2013-08-05 06:32:00,38.8,38.0,29.98,SE,129,1.0,1.0,97,0.00,,,0.01,weatherlink.com 1.10,2013-08-05 12:32:00,
2013-08-05 06:47:00,38.9,38.0,29.98,SE,128,0.0,1.0,98,0.00,,,0.01,weatherlink.com 1.10,2013-08-05 12:47:00,
2013-08-05 07:01:00,38.9,38.0,29.98,SE,129,0.0,1.0,98,0.00,,,0.01,weatherlink.com 1.10,2013-08-05 13:01:00,
2013-08-05 07:17:00,39.2,39.0,29.99,SE,129,0.0,1.0,98,0.00,,,0.01,weatherlink.com 1.10,2013-08-05 13:17:00,
2013-08-05 07:32:00,39.9,39.0,29.99,SE,129,0.0,1.0,98,0.00,,,0.01,weatherlink.com 1.10,2013-08-05 13:32:00,
2013-08-05 07:47:00,40.7,41.0,29.99,SE,129,1.0,1.0,99,0.00,,,0.01,weatherlink.com 1.10,2013-08-05 13:47:00,
2013-08-05 08:02:00,42.1,42.0,29.99,SE,135,0.0,1.0,98,0.00,,,0.01,weatherlink.com 1.10,2013-08-05 14:02:00,
2013-08-05 08:17:00,43.1,42.0,29.99,SE,135,1.0,1.0,97,0.00,,,0.01,weatherlink.com 1.10,2013-08-05 14:17:00,
2013-08-05 08:31:00,44.8,44.0,29.98,SE,135,0.0,1.0,96,0.00,,,0.01,weatherlink.com 1.10,2013-08-05 14:31:00,
2013-08-05 09:02:00,48.7,45.0,29.97,West,268,0.0,1.0,88,0.00,,,0.01,weatherlink.com 1.10,2013-08-05 15:02:00,
2013-08-05 09:17:00,50.8,46.0,29.96,WNW,287,2.0,2.0,83,0.00,,,0.01,weatherlink.com 1.10,2013-08-05 15:17:00,
2013-08-05 09:32:00,53.8,47.0,29.96,West,267,1.0,6.0,77,0.00,,,0.01,weatherlink.com 1.10,2013-08-05 15:32:00,
2013-08-05 09:47:00,55.1,45.0,29.95,South,171,0.0,6.0,70,0.00,,,0.01,weatherlink.com 1.10,2013-08-05 15:47:00,
2013-08-05 10:17:00,57.3,45.0,29.95,West,273,0.0,3.0,64,0.00,,,0.01,weatherlink.com 1.10,2013-08-05 16:17:00,
2013-08-05 10:47:00,60.7,43.0,29.95,West,274,1.0,6.0,52,0.00,,,0.01,weatherlink.com 1.10,2013-08-05 16:47:00,
2013-08-05 11:18:00,64.1,41.0,29.94,WSW,245,1.0,6.0,43,0.00,,,0.01,weatherlink.com 1.10,2013-08-05 17:18:00,
2013-08-05 11:33:00,64.3,41.0,29.93,SSW,195,2.0,11.0,43,0.00,,,0.01,weatherlink.com 1.10,2013-08-05 17:33:00,
2013-08-05 11:48:00,63.9,43.0,29.93,SE,124,1.0,7.0,46,0.00,,,0.01,weatherlink.com 1.10,2013-08-05 17:48:00,
2013-08-05 12:03:00,65.9,43.0,29.93,West,271,2.0,8.0,43,0.00,,,0.01,weatherlink.com 1.10,2013-08-05 18:03:00,
2013-08-05 12:18:00,66.5,44.0,29.92,WNW,302,1.0,11.0,44,0.00,,,0.01,weatherlink.com 1.10,2013-08-05 18:18:00,
2013-08-05 12:33:00,66.0,43.0,29.91,West,278,2.0,11.0,44,0.00,,,0.01,weatherlink.com 1.10,2013-08-05 18:33:00,
2013-08-05 12:48:00,64.6,42.0,29.90,SSW,200,0.0,5.0,44,0.00,,,0.01,weatherlink.com 1.10,2013-08-05 18:48:00,
2013-08-05 13:03:00,63.9,42.0,29.90,West,268,1.0,5.0,45,0.00,,,0.01,weatherlink.com 1.10,2013-08-05 19:03:00,
2013-08-05 13:18:00,62.8,40.0,29.89,WNW,290,0.0,3.0,44,0.00,,,0.01,weatherlink.com 1.10,2013-08-05 19:18:00,
2013-08-05 13:33:00,61.6,44.0,29.89,WSW,252,3.0,5.0,52,0.00,,,0.01,weatherlink.com 1.10,2013-08-05 19:33:00,
2013-08-05 13:48:00,59.3,42.0,29.90,NW,315,4.0,5.0,54,0.00,,,0.01,weatherlink.com 1.10,2013-08-05 19:48:00,
2013-08-05 14:03:00,55.3,43.0,29.94,NNE,16,1.0,6.0,64,0.00,,,0.01,weatherlink.com 1.10,2013-08-05 20:03:00,
2013-08-05 14:33:00,50.0,46.0,29.96,SSE,164,0.0,1.0,87,0.08,,,0.09,weatherlink.com 1.10,2013-08-05 20:33:00,
2013-08-05 14:48:00,49.6,47.0,29.96,WNW,297,0.0,1.0,89,0.09,,,0.10,weatherlink.com 1.10,2013-08-05 20:48:00,
2013-08-05 15:03:00,50.6,47.0,29.95,WNW,297,0.0,1.0,87,0.09,,,0.10,weatherlink.com 1.10,2013-08-05 21:03:00,
2013-08-05 15:18:00,51.3,47.0,29.95,West,267,1.0,2.0,85,0.03,,,0.10,weatherlink.com 1.10,2013-08-05 21:18:00,
2013-08-05 15:33:00,52.2,49.0,29.93,West,281,0.0,2.0,87,0.01,,,0.10,weatherlink.com 1.10,2013-08-05 21:33:00,
2013-08-05 15:48:00,54.2,47.0,29.93,WNW,283,1.0,2.0,76,0.00,,,0.10,weatherlink.com 1.10,2013-08-05 21:48:00,
2013-08-05 16:03:00,56.8,50.0,29.92,SSW,195,0.0,1.0,78,0.00,,,0.10,weatherlink.com 1.10,2013-08-05 22:03:00,
2013-08-05 16:18:00,59.4,46.0,29.91,SE,127,1.0,2.0,61,0.00,,,0.10,weatherlink.com 1.10,2013-08-05 22:18:00,
2013-08-05 16:48:00,59.6,47.0,29.90,ESE,121,0.0,1.0,64,0.00,,,0.10,weatherlink.com 1.10,2013-08-05 22:48:00,
2013-08-05 17:18:00,59.0,46.0,29.91,SSW,205,0.0,4.0,63,0.00,,,0.10,weatherlink.com 1.10,2013-08-05 23:18:00,
2013-08-05 17:33:00,57.5,47.0,29.91,West,263,1.0,4.0,69,0.00,,,0.10,weatherlink.com 1.10,2013-08-05 23:33:00,
2013-08-05 17:48:00,56.4,47.0,29.92,WNW,295,3.0,5.0,70,0.00,,,0.10,weatherlink.com 1.10,2013-08-05 23:48:00,
2013-08-05 18:03:00,54.3,47.0,29.92,SW,231,1.0,2.0,77,0.00,,,0.10,weatherlink.com 1.10,2013-08-06 00:03:00,
2013-08-05 18:18:00,53.1,46.0,29.93,WSW,245,0.0,4.0,76,0.00,,,0.10,weatherlink.com 1.10,2013-08-06 00:18:00,
2013-08-05 18:33:00,51.5,47.0,29.93,WNW,285,0.0,1.0,84,0.01,,,0.11,weatherlink.com 1.10,2013-08-06 00:33:00,
2013-08-05 18:48:00,50.7,47.0,29.93,West,281,0.0,2.0,88,0.01,,,0.11,weatherlink.com 1.10,2013-08-06 00:48:00,
2013-08-05 19:03:00,50.3,47.0,29.94,West,281,0.0,1.0,88,0.01,,,0.11,weatherlink.com 1.10,2013-08-06 01:03:00,
2013-08-05 19:18:00,49.3,47.0,29.95,West,280,0.0,1.0,91,0.06,,,0.16,weatherlink.com 1.10,2013-08-06 01:18:00,
2013-08-05 19:33:00,48.8,47.0,29.95,West,280,0.0,1.0,92,0.09,,,0.20,weatherlink.com 1.10,2013-08-06 01:33:00,
2013-08-05 19:48:00,48.6,47.0,29.95,WNW,302,0.0,1.0,94,0.09,,,0.20,weatherlink.com 1.10,2013-08-06 01:48:00,
2013-08-05 20:03:00,47.9,46.0,29.94,NW,318,0.0,1.0,94,0.09,,,0.20,weatherlink.com 1.10,2013-08-06 02:03:00,
2013-08-05 20:18:00,47.5,46.0,29.94,NW,318,0.0,0.0,95,0.04,,,0.20,weatherlink.com 1.10,2013-08-06 02:18:00,
2013-08-05 20:33:00,47.2,46.0,29.93,NW,318,0.0,0.0,95,0.00,,,0.20,weatherlink.com 1.10,2013-08-06 02:33:00,
2013-08-05 21:03:00,46.2,45.0,29.94,NW,315,0.0,0.0,96,0.00,,,0.20,weatherlink.com 1.10,2013-08-06 03:03:00,
2013-08-05 21:33:00,44.6,44.0,29.95,NW,315,0.0,0.0,96,0.00,,,0.20,weatherlink.com 1.10,2013-08-06 03:33:00,
2013-08-05 21:48:00,44.1,43.0,29.95,NW,315,0.0,0.0,96,0.00,,,0.20,weatherlink.com 1.10,2013-08-06 03:48:00,
2013-08-05 22:03:00,43.9,43.0,29.95,NW,315,0.0,1.0,96,0.00,,,0.20,weatherlink.com 1.10,2013-08-06 04:03:00,
2013-08-05 22:18:00,43.5,43.0,29.95,SE,133,0.0,2.0,96,0.00,,,0.20,weatherlink.com 1.10,2013-08-06 04:18:00,
2013-08-05 22:33:00,43.2,42.0,29.96,SE,133,0.0,1.0,97,0.00,,,0.20,weatherlink.com 1.10,2013-08-06 04:33:00,
2013-08-05 22:48:00,43.2,42.0,29.96,West,270,0.0,1.0,97,0.00,,,0.20,weatherlink.com 1.10,2013-08-06 04:48:00,
2013-08-05 23:03:00,42.7,42.0,29.96,West,270,0.0,0.0,97,0.00,,,0.20,weatherlink.com 1.10,2013-08-06 05:03:00,
2013-08-05 23:18:00,42.3,42.0,29.97,West,270,0.0,1.0,97,0.00,,,0.20,weatherlink.com 1.10,2013-08-06 05:18:00,
2013-08-05 23:33:00,42.5,42.0,29.97,West,270,0.0,1.0,98,0.00,,,0.20,weatherlink.com 1.10,2013-08-06 05:33:00,
2013-08-05 23:48:00,42.7,42.0,29.96,West,270,0.0,1.0,98,0.01,,,0.21,weatherlink.com 1.10,2013-08-06 05:48:00,